Terminal Aerodrome Forecast
Issued by NWS

Home | Current Version | Previous Version | Text Only | Print | Product List | Glossary On
Versions: 1 2 3 4 5 6 7 8 9 10 11 12 13 14 15
000
FTUS43 KABR 202031 AAA
TAFPIR
TAF AMD
KPIR 202031Z 2021/2118 30015G22KT P6SM BKN250
     FM210200 30011KT P6SM BKN110
     FM210700 33014G21KT P6SM SCT050
     FM211300 33020G29KT P6SM FEW250=

USA.gov is the U.S. government's official web portal to all federal, state and local government web resources and services.